Time;durP1;ratioP1;P1;durP2;ratioP2;P2;SDS_P1;SDS_P2;PMS_P1;PMS_P2;Temp;Humidity;BMP_temperature;BMP_pressure;BME280_temperature;BME280_humidity;BME280_pressure;Samples;Min_cycle;Max_cycle;Signal;HPM_P1;HPM_P2
2023/11/05 00:10:29;;;;;;;1.95;1.17;;;;;;;;;;4911441;28;20042;-81
2023/11/05 00:21:01;;;;;;;3.35;1.77;;;;;;;;;;4776570;30;20059;-81
2023/11/05 00:23:33;;;;;;;1.98;1.77;;;;;;;;;;4850173;29;20056;-81
2023/11/05 00:26:45;;;;;;;;;;;;;;;;;;;;;
2023/11/05 00:29:33;;;;;;;3.47;2.13;;;;;;;;;;4957713;29;20073;-81
2023/11/05 00:32:26;;;;;;;2.28;1.85;;;;;;;;;;4926066;29;20430;-81
2023/11/05 00:42:24;;;;;;;;;;;;;;;;;;;;;
2023/11/05 00:44:58;;;;;;;2.10;1.73;;;;;;;;;;4925985;29;20062;-81
2023/11/05 00:47:42;;;;;;;6.60;2.83;;;;;;;;;;4941893;29;20055;-81
2023/11/05 01:17:37;;;;;;;1.90;1.70;;;;;;;;;;5030819;28;20049;-81
2023/11/05 01:20:12;;;;;;;2.58;1.60;;;;;;;;;;5058034;28;20053;-81
2023/11/05 01:22:44;;;;;;;3.50;2.55;;;;;;;;;;5053820;28;20045;-81
2023/11/05 01:25:19;;;;;;;3.83;2.53;;;;;;;;;;5040051;28;20068;-81
2023/11/05 01:27:56;;;;;;;3.00;1.98;;;;;;;;;;5043794;28;20053;-81
2023/11/05 01:31:02;;;;;;;4.90;2.20;;;;;;;;;;5047906;28;20415;-81
2023/11/05 01:33:33;;;;;;;3.90;2.17;;;;;;;;;;5042356;28;20128;-81
2023/11/05 01:36:06;;;;;;;3.30;1.90;;;;;;;;;;5053340;28;20053;-81
2023/11/05 01:38:37;;;;;;;4.18;2.42;;;;;;;;;;5054349;28;20048;-81
2023/11/05 01:44:19;;;;;;;2.42;2.15;;;;;;;;;;4991989;28;20499;-80
2023/11/05 01:46:47;;;;;;;2.55;2.13;;;;;;;;;;4992709;28;20038;-80
2023/11/05 01:49:15;;;;;;;2.75;1.70;;;;;;;;;;4975902;28;20065;-80
2023/11/05 01:51:43;;;;;;;2.17;1.70;;;;;;;;;;4972220;28;20053;-80
2023/11/05 01:54:12;;;;;;;1.90;1.73;;;;;;;;;;4971243;28;20413;-80
2023/11/05 01:56:39;;;;;;;2.78;1.67;;;;;;;;;;4956879;28;20496;-80
2023/11/05 01:59:07;;;;;;;3.58;1.33;;;;;;;;;;4958871;28;20058;-80
2023/11/05 02:01:34;;;;;;;3.72;1.60;;;;;;;;;;4955772;28;20058;-80
2023/11/05 02:04:03;;;;;;;2.05;1.40;;;;;;;;;;4987992;28;20054;-80
2023/11/05 02:06:32;;;;;;;2.05;1.38;;;;;;;;;;4955880;28;20047;-80
2023/11/05 02:08:59;;;;;;;4.13;1.23;;;;;;;;;;4988127;28;20047;-80
2023/11/05 02:11:27;;;;;;;1.60;1.20;;;;;;;;;;4971867;28;20050;-80
2023/11/05 02:13:55;;;;;;;6.38;1.98;;;;;;;;;;4986705;28;20043;-79
2023/11/05 02:16:24;;;;;;;1.45;1.13;;;;;;;;;;4955741;28;20054;-79
2023/11/05 02:18:55;;;;;;;1.85;1.30;;;;;;;;;;4971601;28;20074;-79
2023/11/05 02:21:28;;;;;;;1.52;1.40;;;;;;;;;;4958335;28;20057;-80
2023/11/05 02:23:59;;;;;;;1.92;1.77;;;;;;;;;;4991643;28;20065;-80
2023/11/05 02:26:26;;;;;;;4.07;2.13;;;;;;;;;;4958995;28;20051;-80
2023/11/05 02:28:57;;;;;;;2.95;1.90;;;;;;;;;;4975947;28;20046;-80
2023/11/05 02:31:24;;;;;;;2.13;1.92;;;;;;;;;;4981783;28;20058;-80
2023/11/05 02:33:56;;;;;;;1.27;1.10;;;;;;;;;;4982462;28;20062;-80
2023/11/05 02:36:24;;;;;;;1.92;1.70;;;;;;;;;;4961675;28;20047;-81
2023/11/05 02:38:51;;;;;;;2.65;2.38;;;;;;;;;;4979926;28;20066;-80
2023/11/05 02:41:19;;;;;;;2.28;1.95;;;;;;;;;;4979357;28;20047;-80
2023/11/05 02:43:47;;;;;;;2.97;1.52;;;;;;;;;;4962446;28;20049;-80
2023/11/05 02:46:14;;;;;;;2.15;1.67;;;;;;;;;;4961420;28;20059;-81
2023/11/05 02:48:44;;;;;;;2.08;1.40;;;;;;;;;;4977648;28;20054;-81
2023/11/05 02:51:11;;;;;;;1.55;1.33;;;;;;;;;;4962802;28;20059;-81
2023/11/05 02:53:38;;;;;;;2.95;2.10;;;;;;;;;;4962788;28;20062;-80
2023/11/05 02:56:06;;;;;;;2.45;1.27;;;;;;;;;;5000524;28;20066;-81
2023/11/05 02:58:37;;;;;;;1.95;1.77;;;;;;;;;;4980370;28;20055;-80
2023/11/05 03:01:04;;;;;;;2.03;1.05;;;;;;;;;;4977800;28;20054;-81
2023/11/05 03:03:34;;;;;;;0.90;0.80;;;;;;;;;;4962547;28;20061;-81
2023/11/05 03:06:01;;;;;;;1.73;0.98;;;;;;;;;;4978324;28;20053;-81
2023/11/05 03:08:29;;;;;;;2.70;1.20;;;;;;;;;;4976053;28;20521;-80
2023/11/05 03:10:56;;;;;;;1.52;1.30;;;;;;;;;;4962267;28;20050;-80
2023/11/05 03:13:26;;;;;;;2.30;1.30;;;;;;;;;;4977843;28;20053;-80
2023/11/05 03:15:54;;;;;;;2.15;1.55;;;;;;;;;;4962203;28;20054;-80
2023/11/05 03:18:21;;;;;;;1.45;1.00;;;;;;;;;;4975438;28;20050;-80
2023/11/05 03:20:48;;;;;;;1.48;1.10;;;;;;;;;;4993010;28;20053;-80
2023/11/05 03:23:20;;;;;;;1.52;1.00;;;;;;;;;;4978078;28;20066;-80
2023/11/05 03:25:48;;;;;;;1.73;1.02;;;;;;;;;;4962371;28;20050;-80
2023/11/05 03:28:15;;;;;;;2.15;1.20;;;;;;;;;;4994203;28;20058;-81
2023/11/05 03:30:42;;;;;;;2.28;1.17;;;;;;;;;;4960991;28;20054;-81
2023/11/05 03:33:15;;;;;;;3.00;1.02;;;;;;;;;;4978498;28;20504;-81
2023/11/05 03:35:43;;;;;;;3.00;1.52;;;;;;;;;;4994232;28;20058;-81
2023/11/05 03:38:10;;;;;;;2.58;1.65;;;;;;;;;;4960683;28;20054;-81
2023/11/05 03:40:37;;;;;;;1.42;1.02;;;;;;;;;;4993672;28;20417;-81
2023/11/05 03:43:04;;;;;;;1.42;1.15;;;;;;;;;;4979753;28;20051;-81
2023/11/05 03:45:34;;;;;;;5.22;1.45;;;;;;;;;;4971498;28;20449;-81
2023/11/05 03:48:04;;;;;;;0.88;0.80;;;;;;;;;;4962051;28;20055;-81
2023/11/05 03:50:36;;;;;;;3.72;1.02;;;;;;;;;;4956224;28;20050;-81
2023/11/05 03:53:03;;;;;;;1.13;1.00;;;;;;;;;;4962051;28;20051;-80
2023/11/05 03:55:35;;;;;;;4.28;1.60;;;;;;;;;;4978794;28;20397;-80
2023/11/05 03:58:02;;;;;;;1.20;0.65;;;;;;;;;;4995885;28;20055;-80
2023/11/05 04:00:32;;;;;;;1.95;0.82;;;;;;;;;;4961916;28;20054;-80
2023/11/05 04:03:01;;;;;;;2.88;0.90;;;;;;;;;;4961983;28;20413;-80
2023/11/05 04:05:32;;;;;;;2.03;1.05;;;;;;;;;;4962082;28;20061;-80
2023/11/05 04:08:00;;;;;;;1.48;1.13;;;;;;;;;;4994169;28;20047;-80
2023/11/05 04:10:27;;;;;;;2.45;1.17;;;;;;;;;;4974839;28;20101;-80
2023/11/05 04:12:56;;;;;;;1.88;1.33;;;;;;;;;;4975669;28;20429;-80
2023/11/05 04:15:23;;;;;;;2.97;1.80;;;;;;;;;;4976037;28;20408;-80
2023/11/05 04:17:50;;;;;;;2.63;1.20;;;;;;;;;;4978113;28;20046;-80
2023/11/05 04:20:17;;;;;;;1.42;0.98;;;;;;;;;;4960651;28;20061;-81
2023/11/05 04:22:47;;;;;;;1.67;1.38;;;;;;;;;;4978124;28;20509;-80
2023/11/05 04:25:16;;;;;;;3.67;1.40;;;;;;;;;;4962437;28;20106;-81
2023/11/05 04:27:44;;;;;;;2.50;1.25;;;;;;;;;;4977905;28;20051;-81
2023/11/05 04:30:12;;;;;;;2.55;1.20;;;;;;;;;;4993241;28;20059;-80
2023/11/05 04:32:44;;;;;;;;;;;;;;;;;;4977296;28;20074;-80
2023/11/05 04:35:14;;;;;;;6.20;1.50;;;;;;;;;;4977630;28;19929;-80
2023/11/05 04:37:46;;;;;;;1.48;1.10;;;;;;;;;;4961765;28;20452;-80
2023/11/05 04:40:13;;;;;;;1.77;0.98;;;;;;;;;;4960767;28;20141;-80
2023/11/05 04:42:42;;;;;;;2.55;1.10;;;;;;;;;;4959767;28;20062;-80
2023/11/05 04:45:10;;;;;;;2.97;1.33;;;;;;;;;;4976648;28;20047;-80
2023/11/05 04:47:42;;;;;;;3.75;1.23;;;;;;;;;;4977922;28;20054;-80
2023/11/05 04:50:10;;;;;;;4.43;1.23;;;;;;;;;;4959239;28;20062;-80
2023/11/05 04:52:38;;;;;;;3.03;1.30;;;;;;;;;;4975166;28;20409;-80
2023/11/05 04:55:08;;;;;;;2.45;1.10;;;;;;;;;;4977038;28;20050;-81
2023/11/05 04:57:35;;;;;;;2.03;1.25;;;;;;;;;;4961269;28;20066;-81
2023/11/05 05:00:08;;;;;;;2.15;1.15;;;;;;;;;;4993532;28;20062;-81
2023/11/05 05:02:36;;;;;;;3.60;1.40;;;;;;;;;;4962411;28;20054;-81
2023/11/05 05:05:03;;;;;;;3.25;1.52;;;;;;;;;;4959758;28;20063;-81
2023/11/05 05:07:30;;;;;;;8.13;1.45;;;;;;;;;;4977998;28;20054;-81
2023/11/05 05:09:57;;;;;;;2.10;1.23;;;;;;;;;;4959042;28;20058;-81
2023/11/05 05:12:28;;;;;;;1.80;1.17;;;;;;;;;;4978067;28;20054;-81
2023/11/05 05:14:58;;;;;;;2.72;1.17;;;;;;;;;;4976924;28;20042;-81
2023/11/05 05:17:29;;;;;;;2.85;1.50;;;;;;;;;;4952905;28;20058;-81
2023/11/05 05:19:58;;;;;;;1.88;1.20;;;;;;;;;;4976480;28;20059;-81
2023/11/05 05:22:26;;;;;;;2.85;1.25;;;;;;;;;;4973978;28;20058;-81
2023/11/05 05:24:53;;;;;;;2.00;1.60;;;;;;;;;;4960857;28;20050;-81
2023/11/05 05:27:23;;;;;;;1.58;1.00;;;;;;;;;;4976920;28;20057;-81
2023/11/05 05:29:51;;;;;;;1.70;1.42;;;;;;;;;;4975737;28;20047;-81
2023/11/05 05:32:18;;;;;;;2.30;0.90;;;;;;;;;;4975370;28;20047;-81
2023/11/05 05:34:49;;;;;;;2.42;0.75;;;;;;;;;;4976414;28;20072;-81
2023/11/05 05:37:18;;;;;;;3.25;0.82;;;;;;;;;;4960369;28;20055;-81
2023/11/05 05:39:46;;;;;;;4.45;1.30;;;;;;;;;;4960453;28;20058;-81
2023/11/05 05:42:13;;;;;;;3.90;1.02;;;;;;;;;;4959104;28;20061;-81
2023/11/05 05:44:43;;;;;;;0.60;0.50;;;;;;;;;;4976404;28;20050;-81
2023/11/05 05:47:13;;;;;;;2.28;0.60;;;;;;;;;;4959518;28;20059;-81
2023/11/05 05:49:42;;;;;;;3.20;1.00;;;;;;;;;;4977017;28;20050;-81
2023/11/05 05:52:10;;;;;;;1.40;0.82;;;;;;;;;;4990959;28;20050;-81
2023/11/05 05:54:38;;;;;;;6.15;1.35;;;;;;;;;;4976048;28;20051;-81
2023/11/05 05:57:05;;;;;;;0.60;0.50;;;;;;;;;;4977981;28;20517;-81
2023/11/05 05:59:34;;;;;;;1.38;0.73;;;;;;;;;;4976118;28;20042;-81
2023/11/05 06:02:02;;;;;;;2.25;0.80;;;;;;;;;;4969945;28;20051;-81
2023/11/05 06:04:29;;;;;;;1.75;0.70;;;;;;;;;;4974935;28;20043;-81
2023/11/05 06:06:57;;;;;;;2.95;0.85;;;;;;;;;;4981011;28;20065;-81
2023/11/05 06:09:25;;;;;;;1.45;0.82;;;;;;;;;;4961671;28;20409;-81
2023/11/05 06:11:55;;;;;;;1.50;0.60;;;;;;;;;;4978316;28;20533;-81
2023/11/05 06:14:22;;;;;;;3.95;1.50;;;;;;;;;;4980201;28;20050;-81
2023/11/05 06:16:49;;;;;;;1.35;0.57;;;;;;;;;;4981184;28;20058;-81
2023/11/05 06:19:19;;;;;;;2.13;1.63;;;;;;;;;;4963365;28;20496;-81
2023/11/05 06:21:46;;;;;;;1.45;1.35;;;;;;;;;;4963980;28;20055;-81
2023/11/05 06:24:16;;;;;;;2.00;0.50;;;;;;;;;;4982244;28;20058;-81
2023/11/05 06:26:44;;;;;;;1.77;0.73;;;;;;;;;;4981183;28;20047;-81
2023/11/05 06:29:14;;;;;;;0.80;0.55;;;;;;;;;;4977873;28;20054;-81
2023/11/05 06:31:41;;;;;;;1.33;0.70;;;;;;;;;;4960537;28;20062;-81
2023/11/05 06:34:11;;;;;;;1.55;0.60;;;;;;;;;;4982983;28;20540;-81
2023/11/05 06:36:56;;;;;;;2.42;0.50;;;;;;;;;;4966639;28;20062;-81
2023/11/05 06:39:23;;;;;;;2.15;0.60;;;;;;;;;;4999292;28;20066;-81
2023/11/05 06:41:52;;;;;;;1.17;0.55;;;;;;;;;;4965385;28;20049;-81
2023/11/05 06:44:21;;;;;;;2.03;1.13;;;;;;;;;;4984037;28;20061;-81
2023/11/05 06:46:51;;;;;;;1.90;0.80;;;;;;;;;;4996843;28;20065;-81
2023/11/05 06:49:18;;;;;;;1.52;0.80;;;;;;;;;;4980970;28;20046;-81
2023/11/05 06:51:48;;;;;;;1.48;0.73;;;;;;;;;;4978599;28;20057;-81
2023/11/05 06:54:18;;;;;;;1.33;0.40;;;;;;;;;;4964434;28;20536;-81
2023/11/05 06:56:46;;;;;;;2.22;0.80;;;;;;;;;;4995262;28;20050;-81
2023/11/05 06:59:14;;;;;;;1.63;0.60;;;;;;;;;;4994784;28;20051;-81
2023/11/05 07:01:46;;;;;;;1.45;0.50;;;;;;;;;;4978808;28;20046;-81
2023/11/05 07:04:14;;;;;;;1.25;0.68;;;;;;;;;;4987534;28;20053;-81
2023/11/05 07:06:45;;;;;;;1.25;0.47;;;;;;;;;;4982833;28;20050;-81
2023/11/05 07:09:15;;;;;;;0.73;0.45;;;;;;;;;;4977091;28;20062;-81
2023/11/05 07:11:42;;;;;;;0.60;0.50;;;;;;;;;;4991259;28;20039;-81
2023/11/05 07:14:15;;;;;;;1.63;0.93;;;;;;;;;;4963583;28;20055;-83
2023/11/05 07:16:45;;;;;;;0.90;0.50;;;;;;;;;;4969467;28;20057;-81
2023/11/05 07:19:12;;;;;;;3.05;0.68;;;;;;;;;;4980331;28;20039;-81
2023/11/05 07:21:40;;;;;;;1.77;0.95;;;;;;;;;;4977173;28;20058;-81
2023/11/05 07:24:09;;;;;;;2.40;0.65;;;;;;;;;;4979652;28;20444;-81
2023/11/05 07:26:39;;;;;;;1.27;0.68;;;;;;;;;;4978810;28;20042;-81
2023/11/05 07:29:10;;;;;;;1.00;0.93;;;;;;;;;;4976363;28;20047;-81
2023/11/05 07:31:43;;;;;;;2.15;1.95;;;;;;;;;;4961126;28;20061;-81
2023/11/05 07:34:13;;;;;;;1.58;0.50;;;;;;;;;;4978575;28;20131;-81
2023/11/05 07:36:40;;;;;;;2.22;0.60;;;;;;;;;;4977493;28;20042;-81
2023/11/05 07:39:10;;;;;;;0.80;0.60;;;;;;;;;;4971765;28;20062;-81
2023/11/05 07:41:37;;;;;;;2.13;1.00;;;;;;;;;;4996947;22;20041;-82
2023/11/05 07:44:05;;;;;;;1.05;0.63;;;;;;;;;;5009434;28;20049;-82
2023/11/05 07:46:33;;;;;;;0.68;0.60;;;;;;;;;;5008388;28;20042;-83
2023/11/05 07:49:04;;;;;;;0.73;0.73;;;;;;;;;;5013754;28;20054;-83
2023/11/05 07:51:31;;;;;;;2.08;0.82;;;;;;;;;;5006075;28;20571;-82
2023/11/05 07:54:02;;;;;;;1.58;0.60;;;;;;;;;;5006443;28;20073;-83
2023/11/05 07:56:31;;;;;;;1.02;0.40;;;;;;;;;;5009505;28;20052;-82
2023/11/05 07:58:59;;;;;;;1.00;0.50;;;;;;;;;;5008473;28;20050;-82
2023/11/05 08:01:26;;;;;;;1.10;0.70;;;;;;;;;;4995201;28;20057;-82
2023/11/05 08:03:56;;;;;;;1.60;1.25;;;;;;;;;;4995270;28;20053;-83
2023/11/05 08:06:24;;;;;;;1.65;0.60;;;;;;;;;;5009620;28;20042;-82
2023/11/05 08:08:54;;;;;;;2.60;1.40;;;;;;;;;;4994376;28;20065;-82
2023/11/05 08:11:24;;;;;;;0.82;0.73;;;;;;;;;;5011560;28;20403;-82
2023/11/05 08:13:51;;;;;;;1.70;0.68;;;;;;;;;;5008499;28;20069;-82
2023/11/05 08:16:18;;;;;;;2.58;0.73;;;;;;;;;;4992304;28;20412;-83
2023/11/05 08:18:45;;;;;;;1.67;0.73;;;;;;;;;;5004685;28;20057;-82
2023/11/05 08:21:20;;;;;;;0.60;0.60;;;;;;;;;;5005085;28;20045;-82
2023/11/05 08:23:49;;;;;;;1.40;0.88;;;;;;;;;;5011136;28;20049;-82
2023/11/05 08:26:19;;;;;;;2.60;1.38;;;;;;;;;;5003582;28;20057;-82
2023/11/05 08:28:48;;;;;;;4.30;2.35;;;;;;;;;;5010773;28;20054;-82
2023/11/05 08:31:16;;;;;;;7.00;4.93;;;;;;;;;;5008592;28;20061;-82
2023/11/05 08:33:45;;;;;;;3.58;1.58;;;;;;;;;;5005324;28;20053;-82
2023/11/05 08:36:12;;;;;;;3.53;1.02;;;;;;;;;;4998142;28;20053;-82
2023/11/05 08:38:39;;;;;;;1.17;0.70;;;;;;;;;;4994232;28;20046;-82
2023/11/05 08:41:10;;;;;;;1.27;1.15;;;;;;;;;;5008385;28;20054;-82
2023/11/05 08:43:40;;;;;;;1.17;1.02;;;;;;;;;;5015364;28;20049;-81
2023/11/05 08:46:07;;;;;;;1.13;0.80;;;;;;;;;;5013870;28;20403;-82
2023/11/05 08:48:34;;;;;;;1.15;0.73;;;;;;;;;;5009659;28;20070;-83
2023/11/05 08:51:04;;;;;;;1.25;0.63;;;;;;;;;;5002527;28;20069;-82
2023/11/05 08:53:34;;;;;;;2.55;1.52;;;;;;;;;;5012240;28;20045;-83
2023/11/05 08:56:04;;;;;;;2.58;0.80;;;;;;;;;;5011271;28;20046;-83
2023/11/05 08:58:33;;;;;;;1.35;1.02;;;;;;;;;;5015094;28;20065;-83
2023/11/05 09:01:01;;;;;;;1.38;0.80;;;;;;;;;;4989064;28;20866;-82
2023/11/05 09:03:31;;;;;;;1.13;0.70;;;;;;;;;;4976376;28;20061;-83
2023/11/05 09:05:58;;;;;;;2.95;0.70;;;;;;;;;;5017558;28;20042;-82
2023/11/05 09:08:28;;;;;;;3.10;1.08;;;;;;;;;;5014762;28;20057;-83
2023/11/05 09:10:55;;;;;;;0.93;0.47;;;;;;;;;;5010854;28;20050;-83
2023/11/05 09:13:25;;;;;;;0.60;0.40;;;;;;;;;;5017446;28;20054;-83
2023/11/05 09:15:53;;;;;;;1.10;0.47;;;;;;;;;;5016752;28;20045;-83
2023/11/05 09:18:21;;;;;;;3.58;0.40;;;;;;;;;;5013902;28;20053;-83
2023/11/05 09:20:50;;;;;;;2.50;0.57;;;;;;;;;;4996389;28;20061;-83
2023/11/05 09:23:20;;;;;;;2.90;1.02;;;;;;;;;;4994337;28;20141;-83
2023/11/05 09:25:50;;;;;;;0.70;0.50;;;;;;;;;;5006070;28;20054;-83
2023/11/05 09:28:17;;;;;;;0.93;0.52;;;;;;;;;;5008594;28;20062;-83
2023/11/05 09:30:45;;;;;;;2.92;0.70;;;;;;;;;;4999162;28;20042;-83
2023/11/05 09:33:15;;;;;;;1.27;0.50;;;;;;;;;;4994933;28;20058;-83
2023/11/05 09:35:43;;;;;;;1.38;0.70;;;;;;;;;;5009872;28;20053;-83
2023/11/05 09:38:12;;;;;;;2.05;0.95;;;;;;;;;;4995780;28;20423;-83
2023/11/05 09:40:42;;;;;;;2.28;0.80;;;;;;;;;;5012319;28;20053;-82
2023/11/05 09:43:10;;;;;;;0.88;0.50;;;;;;;;;;5008434;28;20041;-83
2023/11/05 09:45:43;;;;;;;1.10;0.50;;;;;;;;;;5018938;28;20050;-82
2023/11/05 09:48:12;;;;;;;3.97;0.80;;;;;;;;;;4995773;28;20050;-82
2023/11/05 09:50:44;;;;;;;1.23;0.57;;;;;;;;;;5015014;28;20042;-83
2023/11/05 09:53:14;;;;;;;0.50;0.25;;;;;;;;;;5018139;28;20047;-82
2023/11/05 09:55:41;;;;;;;0.50;0.50;;;;;;;;;;5020590;28;20045;-83
2023/11/05 09:58:09;;;;;;;0.30;0.22;;;;;;;;;;5018798;28;20042;-82
2023/11/05 10:00:38;;;;;;;0.40;0.40;;;;;;;;;;5018065;28;20370;-82
2023/11/05 10:03:09;;;;;;;1.10;0.60;;;;;;;;;;5000601;28;20054;-82
2023/11/05 10:05:40;;;;;;;0.47;0.40;;;;;;;;;;4990585;28;20058;-82
2023/11/05 10:08:10;;;;;;;0.75;0.47;;;;;;;;;;5017573;28;20046;-82
2023/11/05 10:10:42;;;;;;;0.95;0.50;;;;;;;;;;5019490;28;20056;-82
2023/11/05 10:13:12;;;;;;;0.70;0.65;;;;;;;;;;5014606;28;20042;-83
2023/11/05 10:15:42;;;;;;;0.73;0.60;;;;;;;;;;5016334;28;20054;-83
2023/11/05 10:18:13;;;;;;;0.47;0.32;;;;;;;;;;5010506;28;20045;-82
2023/11/05 10:20:49;;;;;;;1.35;0.80;;;;;;;;;;5006781;28;20542;-82
2023/11/05 10:23:17;;;;;;;0.73;0.73;;;;;;;;;;4996833;28;20493;-82
2023/11/05 10:25:47;;;;;;;0.32;0.22;;;;;;;;;;4998886;28;20385;-82
2023/11/05 10:28:17;;;;;;;0.77;0.70;;;;;;;;;;5010882;28;20053;-82
2023/11/05 10:30:46;;;;;;;1.13;0.63;;;;;;;;;;5009745;28;20049;-82
2023/11/05 10:33:16;;;;;;;0.60;0.40;;;;;;;;;;4994584;28;20054;-82
2023/11/05 10:35:49;;;;;;;1.17;0.70;;;;;;;;;;5012635;28;20069;-82
2023/11/05 10:38:19;;;;;;;2.08;0.60;;;;;;;;;;5014363;28;20056;-82
2023/11/05 10:40:48;;;;;;;5.18;0.50;;;;;;;;;;5009753;28;20045;-82
2023/11/05 10:43:19;;;;;;;0.63;0.50;;;;;;;;;;5005410;28;20113;-82
2023/11/05 10:45:46;;;;;;;0.57;0.30;;;;;;;;;;5013084;28;20513;-82
2023/11/05 10:48:15;;;;;;;1.85;0.80;;;;;;;;;;5009392;28;20057;-83
2023/11/05 10:50:47;;;;;;;0.57;0.38;;;;;;;;;;5004174;28;20073;-83
2023/11/05 10:53:20;;;;;;;1.08;0.43;;;;;;;;;;5012284;28;20054;-82
2023/11/05 10:55:51;;;;;;;4.10;0.80;;;;;;;;;;4999371;28;20125;-82
2023/11/05 10:58:21;;;;;;;3.38;0.80;;;;;;;;;;5018734;28;20404;-82
2023/11/05 11:00:55;;;;;;;0.82;0.52;;;;;;;;;;5005584;28;20049;-82
2023/11/05 11:03:23;;;;;;;2.67;0.73;;;;;;;;;;5018318;28;20050;-83
2023/11/05 11:05:59;;;;;;;1.47;0.57;;;;;;;;;;5017100;28;20057;-82
2023/11/05 11:08:32;;;;;;;0.75;0.60;;;;;;;;;;5014021;28;20050;-83
2023/11/05 11:11:15;;;;;;;0.43;0.40;;;;;;;;;;5011725;28;20050;-82
2023/11/05 11:13:49;;;;;;;0.90;0.45;;;;;;;;;;5018619;28;20054;-85
2023/11/05 11:16:24;;;;;;;0.77;0.60;;;;;;;;;;5010803;28;20062;-82
2023/11/05 11:18:57;;;;;;;0.93;0.93;;;;;;;;;;5018154;28;20056;-82
2023/11/05 11:21:26;;;;;;;1.90;1.25;;;;;;;;;;5016195;28;20057;-82
2023/11/05 11:24:03;;;;;;;0.95;0.77;;;;;;;;;;5003260;28;20049;-82
2023/11/05 11:26:38;;;;;;;0.98;0.57;;;;;;;;;;5003213;28;20057;-82
2023/11/05 11:29:11;;;;;;;0.55;0.47;;;;;;;;;;5016988;28;20065;-82
2023/11/05 11:31:41;;;;;;;1.67;0.68;;;;;;;;;;5016074;28;20042;-82
2023/11/05 11:34:11;;;;;;;2.10;1.27;;;;;;;;;;5015594;28;20062;-83
2023/11/05 11:36:43;;;;;;;0.80;0.70;;;;;;;;;;5008282;28;20049;-82
2023/11/05 11:39:11;;;;;;;1.10;0.70;;;;;;;;;;5016770;28;20050;-82
2023/11/05 11:41:47;;;;;;;1.27;0.75;;;;;;;;;;5015821;28;20049;-82
2023/11/05 11:44:17;;;;;;;2.65;1.08;;;;;;;;;;5017909;28;20054;-82
2023/11/05 11:46:44;;;;;;;1.38;0.82;;;;;;;;;;5016911;28;20380;-82
2023/11/05 11:49:14;;;;;;;1.63;1.13;;;;;;;;;;5015564;28;20053;-82
2023/11/05 11:51:42;;;;;;;1.77;0.65;;;;;;;;;;5000257;28;20049;-82
2023/11/05 11:54:13;;;;;;;0.60;0.50;;;;;;;;;;5017804;28;20073;-82
2023/11/05 11:56:43;;;;;;;1.52;0.60;;;;;;;;;;5001960;28;20048;-83
2023/11/05 11:59:10;;;;;;;3.00;1.00;;;;;;;;;;5014330;28;20065;-82
2023/11/05 12:01:43;;;;;;;1.20;0.70;;;;;;;;;;5009113;28;20050;-82
2023/11/05 12:04:11;;;;;;;2.13;0.77;;;;;;;;;;5010833;28;20062;-82
2023/11/05 12:06:43;;;;;;;4.53;1.00;;;;;;;;;;4991879;28;20065;-82
2023/11/05 12:09:21;;;;;;;0.98;0.50;;;;;;;;;;4997848;28;20057;-82
2023/11/05 12:11:49;;;;;;;1.23;0.93;;;;;;;;;;5033448;28;20550;-82
2023/11/05 12:14:21;;;;;;;1.15;0.60;;;;;;;;;;5016350;28;20490;-82
2023/11/05 12:16:49;;;;;;;1.25;0.82;;;;;;;;;;4983686;28;20054;-83
2023/11/05 12:19:19;;;;;;;1.77;0.73;;;;;;;;;;5018353;28;20044;-83
2023/11/05 12:21:47;;;;;;;2.05;0.70;;;;;;;;;;5009135;28;20050;-83
2023/11/05 12:24:15;;;;;;;1.35;0.82;;;;;;;;;;5009558;28;20526;-83
2023/11/05 12:26:44;;;;;;;0.88;0.70;;;;;;;;;;4994989;28;20056;-83
2023/11/05 12:29:14;;;;;;;3.80;0.63;;;;;;;;;;5001255;28;20034;-83
2023/11/05 12:31:44;;;;;;;2.10;0.93;;;;;;;;;;5002553;28;20046;-83
2023/11/05 12:34:13;;;;;;;1.35;0.95;;;;;;;;;;5034862;28;20026;-83
2023/11/05 12:36:44;;;;;;;2.22;0.88;;;;;;;;;;5015228;28;20033;-83
2023/11/05 12:39:12;;;;;;;1.75;0.55;;;;;;;;;;5018346;28;20044;-83
2023/11/05 12:41:39;;;;;;;0.88;0.70;;;;;;;;;;5014145;28;20028;-83
2023/11/05 12:44:08;;;;;;;1.23;0.73;;;;;;;;;;5032708;28;20030;-83
2023/11/05 12:46:38;;;;;;;2.20;0.93;;;;;;;;;;5022396;28;20060;-83
2023/11/05 12:49:05;;;;;;;1.65;0.70;;;;;;;;;;5013260;28;20050;-83
2023/11/05 12:51:35;;;;;;;1.45;0.77;;;;;;;;;;5014042;28;20045;-83
2023/11/05 12:54:05;;;;;;;1.38;0.70;;;;;;;;;;5022095;28;20054;-83
2023/11/05 12:56:37;;;;;;;0.90;0.60;;;;;;;;;;5011944;28;20534;-83
2023/11/05 12:59:08;;;;;;;1.58;0.82;;;;;;;;;;5019726;28;20038;-84
2023/11/05 13:01:38;;;;;;;8.85;1.48;;;;;;;;;;5001553;28;20054;-83
2023/11/05 13:04:06;;;;;;;1.00;0.60;;;;;;;;;;5007926;28;20455;-83
2023/11/05 13:06:33;;;;;;;3.17;2.03;;;;;;;;;;5000794;28;20046;-83
2023/11/05 13:09:03;;;;;;;0.65;0.52;;;;;;;;;;5001093;28;20054;-83
2023/11/05 13:11:30;;;;;;;1.20;0.80;;;;;;;;;;5025348;28;20061;-83
2023/11/05 13:14:00;;;;;;;0.90;0.60;;;;;;;;;;5015801;28;20057;-83
2023/11/05 13:16:29;;;;;;;0.57;0.45;;;;;;;;;;5015722;28;20085;-83
2023/11/05 13:18:59;;;;;;;1.80;1.08;;;;;;;;;;4998335;28;20050;-83
2023/11/05 13:21:26;;;;;;;1.10;0.52;;;;;;;;;;4996102;28;20054;-83
2023/11/05 13:23:53;;;;;;;1.33;0.80;;;;;;;;;;4989460;28;20046;-83
2023/11/05 13:26:23;;;;;;;0.90;0.73;;;;;;;;;;5003825;28;20053;-83
2023/11/05 13:28:50;;;;;;;0.98;0.63;;;;;;;;;;5026940;28;20042;-82
2023/11/05 13:31:19;;;;;;;1.80;1.00;;;;;;;;;;5027142;28;20054;-82
2023/11/05 13:33:48;;;;;;;1.52;1.00;;;;;;;;;;5008056;28;20057;-82
2023/11/05 13:36:17;;;;;;;0.52;0.43;;;;;;;;;;5022674;28;20049;-83
2023/11/05 13:38:44;;;;;;;0.80;0.80;;;;;;;;;;5021501;28;20050;-82
2023/11/05 13:41:12;;;;;;;1.35;0.65;;;;;;;;;;5028919;28;20026;-82
2023/11/05 13:48:19;;;;;;;0.75;0.63;;;;;;;;;;4886392;29;20055;-80
2023/11/05 13:51:11;;;;;;;1.55;0.50;;;;;;;;;;5053250;28;20053;-80
2023/11/05 13:58:36;;;;;;;0.47;0.45;;;;;;;;;;4974665;28;20056;-80
2023/11/05 14:05:07;;;;;;;0.30;0.30;;;;;;;;;;5006257;28;20049;-80
2023/11/05 14:07:37;;;;;;;0.60;0.47;;;;;;;;;;5033042;28;20045;-80
2023/11/05 14:10:06;;;;;;;0.90;0.60;;;;;;;;;;5030279;28;20056;-80
2023/11/05 14:12:34;;;;;;;2.17;0.60;;;;;;;;;;5037022;28;20057;-80
2023/11/05 14:15:05;;;;;;;0.63;0.45;;;;;;;;;;5029683;28;20053;-80
2023/11/05 14:17:32;;;;;;;1.92;0.47;;;;;;;;;;5022617;28;20071;-80
2023/11/05 14:19:59;;;;;;;2.10;0.77;;;;;;;;;;5038010;28;20041;-80
2023/11/05 14:22:27;;;;;;;1.38;0.57;;;;;;;;;;5027329;28;20064;-80
2023/11/05 14:24:55;;;;;;;1.10;0.50;;;;;;;;;;5031376;28;20057;-80
2023/11/05 14:27:23;;;;;;;0.90;0.50;;;;;;;;;;5035107;28;20056;-80
2023/11/05 14:29:50;;;;;;;1.30;0.60;;;;;;;;;;5058047;28;20055;-80
2023/11/05 14:32:18;;;;;;;1.65;0.57;;;;;;;;;;5040331;28;20410;-80
2023/11/05 14:34:45;;;;;;;1.10;0.70;;;;;;;;;;5057213;28;20055;-80
2023/11/05 14:37:14;;;;;;;1.85;0.65;;;;;;;;;;5026078;28;20045;-80
2023/11/05 14:39:41;;;;;;;1.25;0.63;;;;;;;;;;5038776;28;20403;-80
2023/11/05 14:42:10;;;;;;;0.45;0.43;;;;;;;;;;5039908;28;20055;-80
2023/11/05 14:44:37;;;;;;;0.70;0.52;;;;;;;;;;5040960;28;20048;-80
2023/11/05 14:47:05;;;;;;;1.40;0.73;;;;;;;;;;5031712;28;20064;-80
2023/11/05 14:49:33;;;;;;;1.05;0.50;;;;;;;;;;5050982;28;20045;-80
2023/11/05 14:52:02;;;;;;;0.75;0.75;;;;;;;;;;5057123;28;20104;-80
2023/11/05 14:54:30;;;;;;;1.30;0.60;;;;;;;;;;5051571;28;20068;-80
2023/11/05 14:56:58;;;;;;;1.20;0.90;;;;;;;;;;5033975;28;20064;-80
2023/11/05 14:59:27;;;;;;;1.60;0.70;;;;;;;;;;5040384;28;20507;-80
2023/11/05 15:01:55;;;;;;;1.35;1.10;;;;;;;;;;5041207;28;20060;-80
2023/11/05 15:04:22;;;;;;;0.50;0.40;;;;;;;;;;5040136;28;20047;-80
2023/11/05 15:06:49;;;;;;;1.35;0.60;;;;;;;;;;5040536;28;20060;-80
2023/11/05 15:09:20;;;;;;;1.00;0.70;;;;;;;;;;5034053;28;20499;-80
2023/11/05 15:11:47;;;;;;;1.52;0.90;;;;;;;;;;5058101;28;20063;-80
2023/11/05 15:14:15;;;;;;;1.00;0.80;;;;;;;;;;5054747;28;20063;-80
2023/11/05 15:16:44;;;;;;;2.67;0.70;;;;;;;;;;5038384;28;20053;-80
2023/11/05 15:19:11;;;;;;;0.63;0.60;;;;;;;;;;5043083;28;20047;-80
2023/11/05 15:21:40;;;;;;;1.02;0.75;;;;;;;;;;5041959;28;20053;-80
2023/11/05 15:24:07;;;;;;;1.00;0.68;;;;;;;;;;5038455;28;20045;-80
2023/11/05 15:26:35;;;;;;;2.15;0.80;;;;;;;;;;5038318;28;20049;-80
2023/11/05 15:29:05;;;;;;;1.15;0.60;;;;;;;;;;5043951;28;20045;-80
2023/11/05 15:31:32;;;;;;;1.35;0.77;;;;;;;;;;5057995;28;20048;-80
2023/11/05 15:34:01;;;;;;;1.10;0.73;;;;;;;;;;5057868;28;20041;-80
2023/11/05 15:36:31;;;;;;;1.10;0.63;;;;;;;;;;5056924;28;20052;-80
2023/11/05 15:38:58;;;;;;;2.35;0.80;;;;;;;;;;5066422;28;20045;-80
2023/11/05 15:41:26;;;;;;;1.38;1.05;;;;;;;;;;5054668;28;20049;-80
2023/11/05 15:43:53;;;;;;;1.10;0.85;;;;;;;;;;5041681;28;20056;-80
2023/11/05 15:46:21;;;;;;;0.60;0.55;;;;;;;;;;5046512;28;20514;-80
2023/11/05 15:48:48;;;;;;;1.45;0.70;;;;;;;;;;5030957;28;20638;-80
2023/11/05 15:51:17;;;;;;;1.30;0.85;;;;;;;;;;5031585;28;20545;-80
2023/11/05 15:53:44;;;;;;;0.70;0.68;;;;;;;;;;5051358;28;20053;-80
2023/11/05 15:56:14;;;;;;;0.63;0.55;;;;;;;;;;5048591;28;20049;-80
2023/11/05 15:58:41;;;;;;;3.45;0.95;;;;;;;;;;5033968;28;20499;-80
2023/11/05 16:01:12;;;;;;;0.70;0.68;;;;;;;;;;5051220;28;20045;-81
2023/11/05 16:03:39;;;;;;;0.50;0.50;;;;;;;;;;5037126;28;20402;-81
2023/11/05 16:06:08;;;;;;;2.45;1.02;;;;;;;;;;5052912;28;20495;-80
2023/11/05 16:08:41;;;;;;;;;;;;;;;;;;5035195;28;20052;-81